Garland's Hourly Summary for Friday, July 6, 2018
Hour Temp
(f)
RH
(%)
Solar Rad.
(MJ/m2)
Rainfall
(in)
Wind
(mph)
7/6/2018 12:00 AM 82 61 0 0 4.2
7/6/2018 1:00 AM 81 62 0 0 3.09
7/6/2018 2:00 AM 80 64 0 0 2.54
7/6/2018 3:00 AM 79 66 0 0 2.06
7/6/2018 4:00 AM 78 70 0 0 1.46
7/6/2018 5:00 AM 77 74 0 0 1.09
7/6/2018 6:00 AM 77 75 0 0 2.39
7/6/2018 7:00 AM 76 75 0.06 0 3.91
7/6/2018 8:00 AM 77 71 0.5 0 4.48
7/6/2018 9:00 AM 80 65 1.19 0 4.96
7/6/2018 10:00 AM 83 58 1.86 0 4.15
7/6/2018 11:00 AM 86 51 2.42 0 5.86
7/6/2018 12:00 PM 88 47 2.39 0 5.9
7/6/2018 1:00 PM 90 42 2.88 0 5.85
7/6/2018 2:00 PM 91 37 2.05 0 6.26
7/6/2018 3:00 PM 87 40 1.54 0.01 7.54
7/6/2018 4:00 PM 77 58 0.24 0.03 5.9
7/6/2018 5:00 PM 78 64 0.52 0 2.18
7/6/2018 6:00 PM 81 53 0.73 0 5.89
7/6/2018 7:00 PM 81 55 0.91 0 5.36
7/6/2018 8:00 PM 80 57 0.33 0 4.68
7/6/2018 9:00 PM 79 60 0.02 0 4.7
7/6/2018 10:00 PM 78 69 0 0 5.39
7/6/2018 11:00 PM 78 69 0 0 3.21
Data Summary 81 60 17.64 0.04 4.29